This is the latest recevied weather packets stored in our database for station/object HOWARD. If no packets are shown the sender has not sent any weather packets the latest 10 day(s).
| Time | Temp. | Humidity | Pressure | Rain* | Wind** | Luminosity | Snow |
|---|---|---|---|---|---|---|---|
| 1788548087 | 3.33° C | 82% | 1010.4 hPa | 2.54 mm | - | - | - |
| 1788547487 | 2.78° C | 84% | 1010.3 hPa | 2.79 mm | - | - | - |
| 1788546887 | 3.33° C | 80% | 1010.1 hPa | 2.79 mm | - | - | - |
| 1788546287 | 3.89° C | 78% | 1010.1 hPa | 2.54 mm | - | - | - |
| 1788545687 | 4.44° C | 77% | 1010.1 hPa | 2.29 mm | - | - | - |
| 1788545087 | 3.89° C | 81% | 1010 hPa | 2.03 mm | - | - | - |
| 1788544487 | 3.33° C | 82% | 1009.9 hPa | 1.52 mm | - | - | - |
| 1788543887 | 2.22° C | 85% | 1009.8 hPa | 1.02 mm | - | - | - |
| 1788543287 | 1.67° C | 86% | 1009.6 hPa | 0.76 mm | - | - | - |
| 1788542784 | 1.67° C | 85% | 1009.5 hPa | 1.02 mm | - | - | - |
| 1788542687 | 1.67° C | 85% | 1009.5 hPa | 1.02 mm | - | - | - |
| 1788542087 | 1.11° C | 86% | 1009.2 hPa | 1.02 mm | - | - | - |
| 1788541487 | 0.56° C | 87% | 1009 hPa | 1.02 mm | - | - | - |
| 1788540887 | 1.11° C | 85% | 1008.9 hPa | 1.27 mm | - | - | - |
| 1788540287 | 1.11° C | 87% | 1008.8 hPa | 1.27 mm | - | - | - |
| 1788539687 | 0.56° C | 87% | 1008.6 hPa | 1.27 mm | - | - | - |
| 1788539413 | 1.11° C | 87% | 1008.5 hPa | 1.02 mm | - | - | - |
| 1788539087 | 1.11° C | 87% | 1008.5 hPa | 1.02 mm | - | - | - |
| 1788538524 | 1.11° C | 87% | 1008.5 hPa | 1.02 mm | - | - | - |
| 1788538487 | 1.11° C | 87% | 1008.5 hPa | 1.02 mm | - | - | - |
| 1788537887 | 1.11° C | 88% | 1008.4 hPa | 1.02 mm | - | - | - |
| 1788537287 | 0.56° C | 88% | 1008.2 hPa | 0.76 mm | - | - | - |
| 1788536687 | 0° C | 88% | 1008.2 hPa | 0.76 mm | - | - | - |
| 1788536087 | 0° C | 88% | 1008.1 hPa | 0.76 mm | - | - | - |
| 1788535487 | 0.56° C | 87% | 1008 hPa | 0.76 mm | - | - | - |
* Rain latest hour (hover to see other rain measurements)
** Current wind speed in m/s (hover to see current wind gust speed)